Time;durP1;ratioP1;P1;durP2;ratioP2;P2;SDS_P1;SDS_P2;PMS_P1;PMS_P2;Temp;Humidity;BMP_temperature;BMP_pressure;BME280_temperature;BME280_humidity;BME280_pressure;Samples;Min_cycle;Max_cycle;Signal;HPM_P1;HPM_P2
2022/06/18 00:01:09;;;;;;;;;;;26.00;38.40;;;;;;1546050;75;1948;-68
2022/06/18 00:03:11;;;;;;;;;;;26.00;38.50;;;;;;1550158;75;742;-68
2022/06/18 00:05:13;;;;;;;;;;;26.00;38.40;;;;;;1546051;75;680;-68
2022/06/18 00:07:17;;;;;;;;;;;26.00;38.50;;;;;;1548792;75;1151;-68
2022/06/18 00:09:20;;;;;;;;;;;26.00;38.50;;;;;;1549749;75;1808;-67
2022/06/18 00:13:42;;;;;;;;;;;26.00;38.50;;;;;;1549260;75;1635;-67
2022/06/18 00:15:44;;;;;;;;;;;26.00;38.50;;;;;;1545900;75;778;-68
2022/06/18 00:17:46;;;;;;;;;;;26.00;38.50;;;;;;1549723;75;1105;-68
2022/06/18 00:19:48;;;;;;;;;;;26.00;38.60;;;;;;1549663;75;737;-67
2022/06/18 00:21:50;;;;;;;;;;;26.00;38.60;;;;;;1553004;75;767;-68
2022/06/18 00:23:52;;;;;;;;;;;26.00;38.60;;;;;;1544273;75;1931;-68
2022/06/18 00:25:54;;;;;;;;;;;26.00;38.60;;;;;;1538693;75;695;-68
2022/06/18 00:27:56;;;;;;;;;;;25.90;38.10;;;;;;1546484;75;1077;-68
2022/06/18 00:29:57;;;;;;;;;;;26.00;38.60;;;;;;1547888;75;761;-68
2022/06/18 00:31:59;;;;;;;;;;;26.00;38.60;;;;;;1550813;75;738;-68
2022/06/18 00:34:01;;;;;;;;;;;26.00;38.60;;;;;;1544686;75;709;-67
2022/06/18 00:36:04;;;;;;;;;;;26.00;38.60;;;;;;1553005;75;1164;-66
2022/06/18 00:38:07;;;;;;;;;;;25.90;38.10;;;;;;1546211;75;782;-68
2022/06/18 00:40:17;;;;;;;;;;;26.00;38.60;;;;;;1551315;75;837;-68
2022/06/18 00:42:20;;;;;;;;;;;26.00;38.60;;;;;;1548262;75;1020;-66
2022/06/18 00:44:29;;;;;;;;;;;26.00;38.60;;;;;;1548556;75;1927;-68
2022/06/18 00:46:38;;;;;;;;;;;26.00;38.60;;;;;;1548837;75;1192;-68
2022/06/18 00:48:41;;;;;;;;;;;26.00;38.70;;;;;;1555784;75;1507;-66
2022/06/18 00:50:50;;;;;;;;;;;26.00;38.70;;;;;;1548408;75;796;-68
2022/06/18 00:52:53;;;;;;;;;;;25.90;38.10;;;;;;1557096;75;1691;-66
2022/06/18 00:54:57;;;;;;;;;;;26.00;38.70;;;;;;1541089;75;613;-66
2022/06/18 00:57:00;;;;;;;;;;;26.00;38.70;;;;;;1541888;70;2137;-66
2022/06/18 00:59:04;;;;;;;;;;;26.00;38.70;;;;;;1578312;74;621;-67
2022/06/18 01:01:11;;;;;;;;;;;26.00;38.80;;;;;;1595139;73;732;-66
2022/06/18 01:03:29;;;;;;;;;;;26.00;38.70;;;;;;1599295;73;1073;-65
2022/06/18 01:05:35;;;;;;;;;;;26.00;38.70;;;;;;1590649;73;1935;-67
2022/06/18 01:07:37;;;;;;;;;;;26.00;38.80;;;;;;1593622;73;1170;-67
2022/06/18 01:09:39;;;;;;;;;;;26.00;38.80;;;;;;1629703;72;658;-67
2022/06/18 01:11:41;;;;;;;;;;;26.00;38.80;;;;;;1602188;72;639;-65
2022/06/18 01:13:43;;;;;;;;;;;26.00;38.80;;;;;;1605615;72;671;-65
2022/06/18 01:15:45;;;;;;;;;;;25.90;38.30;;;;;;1618588;72;668;-67
2022/06/18 01:17:47;;;;;;;;;;;26.00;38.80;;;;;;1631376;71;1159;-67
2022/06/18 01:19:51;;;;;;;;;;;26.00;38.90;;;;;;1616906;72;647;-67
2022/06/18 01:21:54;;;;;;;;;;;25.90;38.30;;;;;;1597143;72;689;-67
2022/06/18 01:23:57;;;;;;;;;;;25.90;38.30;;;;;;1603639;72;1928;-65
2022/06/18 01:25:59;;;;;;;;;;;26.00;38.90;;;;;;1609525;72;575;-66
2022/06/18 01:28:01;;;;;;;;;;;26.00;38.90;;;;;;1612731;72;1145;-65
2022/06/18 01:30:07;;;;;;;;;;;26.00;38.90;;;;;;1601097;72;694;-65
2022/06/18 01:32:09;;;;;;;;;;;26.00;38.90;;;;;;1611344;72;697;-65
2022/06/18 01:34:11;;;;;;;;;;;26.00;38.90;;;;;;1613410;72;679;-65
2022/06/18 01:36:13;;;;;;;;;;;26.00;38.90;;;;;;1601738;72;718;-65
2022/06/18 01:38:15;;;;;;;;;;;26.00;39.00;;;;;;1602669;72;1123;-66
2022/06/18 01:40:19;;;;;;;;;;;26.00;39.00;;;;;;1600935;72;709;-65
2022/06/18 01:42:22;;;;;;;;;;;26.00;39.00;;;;;;1599430;72;1078;-64
2022/06/18 01:44:25;;;;;;;;;;;25.90;38.40;;;;;;1602366;72;1926;-65
2022/06/18 01:46:27;;;;;;;;;;;25.90;38.40;;;;;;1600758;72;709;-66
2022/06/18 01:48:31;;;;;;;;;;;26.00;39.00;;;;;;1621033;71;1137;-66
2022/06/18 01:50:33;;;;;;;;;;;26.00;39.00;;;;;;1600551;72;1024;-65
2022/06/18 01:52:36;;;;;;;;;;;26.00;39.00;;;;;;1608369;72;677;-64
2022/06/18 01:54:40;;;;;;;;;;;26.00;39.00;;;;;;1605713;72;963;-65
2022/06/18 01:56:43;;;;;;;;;;;26.00;39.10;;;;;;1621438;72;1184;-66
2022/06/18 01:58:47;;;;;;;;;;;25.90;38.50;;;;;;1597501;72;781;-66
2022/06/18 02:00:50;;;;;;;;;;;25.90;38.60;;;;;;1603874;72;705;-66
2022/06/18 02:02:52;;;;;;;;;;;26.00;39.10;;;;;;1617830;72;681;-67
2022/06/18 02:04:54;;;;;;;;;;;25.90;38.50;;;;;;1607493;72;1932;-66
2022/06/18 02:06:55;;;;;;;;;;;26.00;39.10;;;;;;1609884;72;1174;-66
2022/06/18 02:08:57;;;;;;;;;;;26.00;39.10;;;;;;1600051;72;648;-66
2022/06/18 02:11:01;;;;;;;;;;;26.00;39.20;;;;;;1581619;74;630;-64
2022/06/18 02:13:03;;;;;;;;;;;25.90;38.60;;;;;;1601904;72;692;-66
2022/06/18 02:15:06;;;;;;;;;;;25.90;38.50;;;;;;1606239;72;714;-66
2022/06/18 02:17:09;;;;;;;;;;;25.90;38.60;;;;;;1598764;72;1162;-66
2022/06/18 02:19:10;;;;;;;;;;;26.00;39.20;;;;;;1608606;72;635;-65
2022/06/18 02:21:13;;;;;;;;;;;26.00;39.20;;;;;;1607355;72;569;-66
2022/06/18 02:23:16;;;;;;;;;;;26.00;39.20;;;;;;1619169;72;724;-66
2022/06/18 02:25:19;;;;;;;;;;;25.90;38.70;;;;;;1607924;72;1931;-67
2022/06/18 02:27:21;;;;;;;;;;;25.90;38.70;;;;;;1593320;72;1138;-67
2022/06/18 02:29:23;;;;;;;;;;;26.00;39.20;;;;;;1614725;72;696;-66
2022/06/18 02:31:27;;;;;;;;;;;25.90;38.70;;;;;;1614924;72;667;-65
2022/06/18 02:33:46;;;;;;;;;;;25.90;38.70;;;;;;1611588;72;966;-66
2022/06/18 02:35:47;;;;;;;;;;;25.90;38.70;;;;;;1606655;72;712;-66
2022/06/18 02:37:49;;;;;;;;;;;25.90;38.70;;;;;;1604060;71;1179;-65
2022/06/18 02:40:02;;;;;;;;;;;25.90;38.80;;;;;;1609418;72;1495;-66
2022/06/18 02:42:08;;;;;;;;;;;26.00;39.30;;;;;;1601654;72;676;-66
2022/06/18 02:44:11;;;;;;;;;;;25.90;38.80;;;;;;1610656;72;1970;-67
2022/06/18 02:46:13;;;;;;;;;;;25.90;38.80;;;;;;1601661;72;699;-67
2022/06/18 02:48:15;;;;;;;;;;;25.90;38.80;;;;;;1609289;72;1141;-65
2022/06/18 02:50:17;;;;;;;;;;;25.90;38.80;;;;;;1612044;72;722;-68
2022/06/18 02:52:19;;;;;;;;;;;25.90;38.80;;;;;;1624512;72;620;-67
2022/06/18 02:54:20;;;;;;;;;;;25.90;38.90;;;;;;1607513;72;681;-67
2022/06/18 02:56:22;;;;;;;;;;;25.90;38.80;;;;;;1615597;72;689;-68
2022/06/18 02:58:26;;;;;;;;;;;26.00;39.40;;;;;;1608299;72;1067;-68
2022/06/18 03:00:28;;;;;;;;;;;25.90;38.90;;;;;;1612497;73;1013;-67
2022/06/18 03:02:30;;;;;;;;;;;26.00;39.40;;;;;;1616006;72;658;-67
2022/06/18 03:04:32;;;;;;;;;;;25.90;38.90;;;;;;1603958;72;1932;-68
2022/06/18 03:06:33;;;;;;;;;;;26.00;39.40;;;;;;1616061;72;652;-68
2022/06/18 03:08:35;;;;;;;;;;;25.90;38.90;;;;;;1607720;72;578;-68
2022/06/18 03:12:57;;;;;;;;;;;26.00;39.50;;;;;;1626050;72;1646;-67
2022/06/18 03:14:59;;;;;;;;;;;25.90;38.90;;;;;;1607703;72;700;-67
2022/06/18 03:17:00;;;;;;;;;;;25.90;38.90;;;;;;1599897;72;1154;-68
2022/06/18 03:19:03;;;;;;;;;;;25.90;38.90;;;;;;1599050;72;685;-68
2022/06/18 03:21:15;;;;;;;;;;;25.90;38.90;;;;;;1593479;72;723;-67
2022/06/18 03:23:16;;;;;;;;;;;25.90;39.00;;;;;;1592923;72;1094;-67
2022/06/18 03:25:18;;;;;;;;;;;25.90;38.90;;;;;;1596810;72;1928;-67
2022/06/18 03:27:20;;;;;;;;;;;25.90;38.90;;;;;;1607588;71;1159;-67
2022/06/18 03:29:22;;;;;;;;;;;25.90;38.90;;;;;;1611677;73;704;-68
2022/06/18 03:31:24;;;;;;;;;;;25.90;39.00;;;;;;1607566;72;668;-67
2022/06/18 03:33:26;;;;;;;;;;;25.90;39.00;;;;;;1606431;72;664;-67
2022/06/18 03:35:28;;;;;;;;;;;25.80;39.00;;;;;;1604644;72;693;-67
2022/06/18 03:37:30;;;;;;;;;;;25.90;39.00;;;;;;1595824;72;1419;-67
2022/06/18 03:39:32;;;;;;;;;;;25.80;39.10;;;;;;1594995;72;680;-68
2022/06/18 03:41:34;;;;;;;;;;;25.90;39.10;;;;;;1605979;72;678;-68
2022/06/18 03:43:35;;;;;;;;;;;25.80;39.10;;;;;;1598578;72;663;-68
2022/06/18 03:45:44;;;;;;;;;;;25.90;39.10;;;;;;1606345;72;1940;-66
2022/06/18 03:47:46;;;;;;;;;;;25.80;39.20;;;;;;1606587;72;1220;-68
2022/06/18 03:49:48;;;;;;;;;;;25.80;39.10;;;;;;1585591;72;690;-67
2022/06/18 03:51:49;;;;;;;;;;;25.90;39.20;;;;;;1606020;72;681;-68
2022/06/18 03:53:51;;;;;;;;;;;25.90;39.20;;;;;;1607224;72;682;-67
2022/06/18 03:55:53;;;;;;;;;;;25.80;39.20;;;;;;1595380;73;676;-68
2022/06/18 03:57:55;;;;;;;;;;;25.80;39.20;;;;;;1612623;71;1127;-66
2022/06/18 03:59:57;;;;;;;;;;;25.90;39.20;;;;;;1611171;72;807;-68
2022/06/18 04:01:59;;;;;;;;;;;25.80;39.20;;;;;;1605886;72;650;-67
2022/06/18 04:04:01;;;;;;;;;;;25.90;39.20;;;;;;1605571;72;578;-68
2022/06/18 04:06:02;;;;;;;;;;;25.90;39.20;;;;;;1606081;72;1920;-68
2022/06/18 04:08:04;;;;;;;;;;;25.80;39.30;;;;;;1603674;72;1185;-68
2022/06/18 04:10:06;;;;;;;;;;;25.90;39.20;;;;;;1601620;72;669;-69
2022/06/18 04:12:09;;;;;;;;;;;25.80;39.30;;;;;;1593639;72;648;-69
2022/06/18 04:14:11;;;;;;;;;;;25.80;39.30;;;;;;1589956;72;716;-68
2022/06/18 04:16:13;;;;;;;;;;;25.80;39.30;;;;;;1594612;72;688;-68
2022/06/18 04:18:15;;;;;;;;;;;25.80;39.40;;;;;;1601312;72;1130;-68
2022/06/18 04:20:27;;;;;;;;;;;25.80;39.40;;;;;;1593266;72;957;-68
2022/06/18 04:22:29;;;;;;;;;;;25.80;39.30;;;;;;1604143;72;657;-69
2022/06/18 04:24:31;;;;;;;;;;;25.80;39.40;;;;;;1593590;72;584;-67
2022/06/18 04:26:32;;;;;;;;;;;25.80;39.40;;;;;;1591208;72;1942;-67
2022/06/18 04:28:34;;;;;;;;;;;25.90;39.40;;;;;;1606777;72;1153;-68
2022/06/18 04:30:36;;;;;;;;;;;25.80;39.40;;;;;;1606725;72;643;-68
2022/06/18 04:32:38;;;;;;;;;;;25.80;39.40;;;;;;1608637;72;1447;-67
2022/06/18 04:34:40;;;;;;;;;;;25.90;39.40;;;;;;1614372;72;765;-68
2022/06/18 04:36:42;;;;;;;;;;;25.80;39.40;;;;;;1598413;72;1125;-68
2022/06/18 04:38:44;;;;;;;;;;;25.80;39.40;;;;;;1609676;72;656;-66
2022/06/18 04:40:46;;;;;;;;;;;25.80;39.50;;;;;;1614360;72;670;-66
2022/06/18 04:42:47;;;;;;;;;;;25.80;39.40;;;;;;1605058;72;688;-64
2022/06/18 04:44:49;;;;;;;;;;;25.90;39.40;;;;;;1609033;72;622;-66
2022/06/18 04:46:51;;;;;;;;;;;25.90;39.40;;;;;;1596107;71;1080;-67
2022/06/18 04:48:53;;;;;;;;;;;25.90;39.40;;;;;;1596185;72;660;-67
2022/06/18 04:50:55;;;;;;;;;;;25.90;39.40;;;;;;1593348;73;697;-67
2022/06/18 04:52:57;;;;;;;;;;;25.90;39.40;;;;;;1602293;72;700;-66
2022/06/18 04:54:59;;;;;;;;;;;25.90;39.40;;;;;;1594408;72;686;-65
2022/06/18 04:57:01;;;;;;;;;;;26.00;39.90;;;;;;1611165;72;1188;-65
2022/06/18 04:59:02;;;;;;;;;;;26.00;39.80;;;;;;1610976;72;806;-66
2022/06/18 05:01:05;;;;;;;;;;;26.00;39.80;;;;;;1612641;72;734;-66
2022/06/18 05:03:07;;;;;;;;;;;26.00;39.80;;;;;;1614271;72;668;-66
2022/06/18 05:05:11;;;;;;;;;;;26.00;39.80;;;;;;1604189;72;1937;-66
2022/06/18 05:07:12;;;;;;;;;;;26.00;39.80;;;;;;1607247;72;1185;-66
2022/06/18 05:09:14;;;;;;;;;;;26.00;39.80;;;;;;1608312;72;670;-64
2022/06/18 05:11:16;;;;;;;;;;;26.00;39.80;;;;;;1600422;72;666;-66
2022/06/18 05:13:18;;;;;;;;;;;26.00;39.80;;;;;;1610447;72;687;-66
2022/06/18 05:15:20;;;;;;;;;;;26.00;39.90;;;;;;1611121;72;725;-66
2022/06/18 05:17:23;;;;;;;;;;;26.00;39.90;;;;;;1607908;72;1138;-67
2022/06/18 05:19:27;;;;;;;;;;;26.00;39.90;;;;;;1608222;72;682;-69
2022/06/18 05:21:28;;;;;;;;;;;26.00;39.90;;;;;;1607262;72;1602;-66
2022/06/18 05:23:30;;;;;;;;;;;26.00;39.90;;;;;;1609287;72;675;-67
2022/06/18 05:25:32;;;;;;;;;;;26.00;39.90;;;;;;1608490;72;1928;-67
2022/06/18 05:27:34;;;;;;;;;;;26.00;39.90;;;;;;1607776;72;1158;-67
2022/06/18 05:29:36;;;;;;;;;;;26.00;40.00;;;;;;1611783;72;1461;-66
2022/06/18 05:31:38;;;;;;;;;;;26.10;40.00;;;;;;1616278;72;706;-66
2022/06/18 05:33:40;;;;;;;;;;;26.10;39.90;;;;;;1606266;73;683;-66
2022/06/18 05:35:42;;;;;;;;;;;26.10;39.90;;;;;;1607733;72;644;-64
2022/06/18 05:37:44;;;;;;;;;;;26.10;39.90;;;;;;1611134;72;1138;-67
2022/06/18 05:39:46;;;;;;;;;;;26.10;39.80;;;;;;1607828;72;625;-65
2022/06/18 05:41:48;;;;;;;;;;;26.20;39.70;;;;;;1609903;72;702;-67
2022/06/18 05:43:50;;;;;;;;;;;26.10;39.70;;;;;;1606822;72;630;-67
2022/06/18 05:45:53;;;;;;;;;;;26.10;39.70;;;;;;1607924;72;1920;-67
2022/06/18 05:47:55;;;;;;;;;;;26.10;39.80;;;;;;1608472;72;1150;-66
2022/06/18 05:49:57;;;;;;;;;;;26.10;39.80;;;;;;1607588;72;668;-67
2022/06/18 05:51:59;;;;;;;;;;;26.00;39.80;;;;;;1611585;72;666;-67
2022/06/18 05:54:00;;;;;;;;;;;26.10;39.80;;;;;;1611801;72;764;-66
2022/06/18 05:56:02;;;;;;;;;;;26.00;39.80;;;;;;1614534;72;635;-67
2022/06/18 05:58:04;;;;;;;;;;;26.00;39.80;;;;;;1608140;72;1200;-66
2022/06/18 06:00:06;;;;;;;;;;;26.00;39.90;;;;;;1612020;72;772;-66
2022/06/18 06:02:10;;;;;;;;;;;26.00;39.80;;;;;;1607569;72;690;-68
2022/06/18 06:04:12;;;;;;;;;;;26.00;39.80;;;;;;1606697;72;657;-67
2022/06/18 06:06:14;;;;;;;;;;;26.00;39.80;;;;;;1608975;72;1936;-66
2022/06/18 06:08:16;;;;;;;;;;;26.00;39.80;;;;;;1606199;72;1153;-66
2022/06/18 06:12:42;;;;;;;;;;;26.10;39.80;;;;;;1607960;73;711;-68
2022/06/18 06:14:44;;;;;;;;;;;26.10;39.80;;;;;;1616214;72;657;-67
2022/06/18 06:16:46;;;;;;;;;;;26.10;39.80;;;;;;1605680;71;1133;-68
2022/06/18 06:18:48;;;;;;;;;;;26.00;39.70;;;;;;1613149;72;672;-69
2022/06/18 06:20:53;;;;;;;;;;;26.10;39.70;;;;;;1608444;72;679;-68
2022/06/18 06:22:55;;;;;;;;;;;26.10;39.70;;;;;;1613783;72;730;-67
2022/06/18 06:24:57;;;;;;;;;;;26.10;39.70;;;;;;1614401;72;1542;-67
2022/06/18 06:26:59;;;;;;;;;;;26.10;39.70;;;;;;1599074;72;1943;-68
2022/06/18 06:29:01;;;;;;;;;;;26.10;39.60;;;;;;1594328;72;706;-68
2022/06/18 06:31:03;;;;;;;;;;;26.10;39.70;;;;;;1610937;72;706;-68
2022/06/18 06:33:05;;;;;;;;;;;26.10;39.70;;;;;;1604566;72;650;-68
2022/06/18 06:35:07;;;;;;;;;;;26.20;39.60;;;;;;1607179;73;634;-68
2022/06/18 06:37:10;;;;;;;;;;;26.20;39.70;;;;;;1616263;71;1164;-67
2022/06/18 06:39:12;;;;;;;;;;;26.20;39.60;;;;;;1609144;72;696;-69
2022/06/18 06:41:15;;;;;;;;;;;26.20;39.60;;;;;;1615747;72;665;-69
2022/06/18 06:43:17;;;;;;;;;;;26.20;39.60;;;;;;1613847;72;719;-68
2022/06/18 06:45:21;;;;;;;;;;;26.20;39.60;;;;;;1609399;72;610;-68
2022/06/18 06:47:22;;;;;;;;;;;26.20;39.70;;;;;;1606275;72;1899;-68
2022/06/18 06:49:24;;;;;;;;;;;26.30;39.70;;;;;;1605802;72;635;-67
2022/06/18 06:51:26;;;;;;;;;;;26.40;39.70;;;;;;1610957;72;685;-68
2022/06/18 06:53:28;;;;;;;;;;;26.40;39.90;;;;;;1605378;72;638;-68
2022/06/18 06:57:54;;;;;;;;;;;26.50;40.10;;;;;;1602038;72;2073;-66
2022/06/18 06:59:55;;;;;;;;;;;26.50;40.10;;;;;;1565692;74;702;-66
2022/06/18 07:01:57;;;;;;;;;;;26.50;40.30;;;;;;1573242;74;731;-66
2022/06/18 07:03:59;;;;;;;;;;;26.50;40.30;;;;;;1558018;74;754;-67
2022/06/18 07:06:01;;;;;;;;;;;26.50;40.30;;;;;;1559089;74;1938;-66
2022/06/18 07:08:03;;;;;;;;;;;26.50;40.30;;;;;;1584739;73;1164;-68
2022/06/18 07:10:06;;;;;;;;;;;26.50;40.60;;;;;;1597793;73;705;-66
2022/06/18 07:12:08;;;;;;;;;;;26.50;40.70;;;;;;1594913;73;736;-67
2022/06/18 07:14:10;;;;;;;;;;;26.60;40.80;;;;;;1597059;73;823;-66
2022/06/18 07:16:12;;;;;;;;;;;26.60;40.70;;;;;;1590410;73;761;-66
2022/06/18 07:18:18;;;;;;;;;;;26.70;40.80;;;;;;1590684;73;1129;-66
2022/06/18 07:20:21;;;;;;;;;;;26.80;40.70;;;;;;1600815;73;716;-66
2022/06/18 07:22:23;;;;;;;;;;;26.80;40.60;;;;;;1599236;73;1608;-66
2022/06/18 07:24:25;;;;;;;;;;;26.90;40.40;;;;;;1597401;73;710;-66
2022/06/18 07:26:27;;;;;;;;;;;26.90;40.40;;;;;;1601464;73;1922;-66
2022/06/18 07:28:29;;;;;;;;;;;26.90;40.30;;;;;;1600376;73;1112;-66
2022/06/18 07:30:30;;;;;;;;;;;27.00;41.00;;;;;;1597570;73;745;-66
2022/06/18 07:32:32;;;;;;;;;;;27.10;40.80;;;;;;1598699;73;724;-67
2022/06/18 07:34:34;;;;;;;;;;;27.00;40.80;;;;;;1596905;73;672;-66
2022/06/18 07:36:36;;;;;;;;;;;27.00;40.70;;;;;;1595499;73;653;-66
2022/06/18 07:38:38;;;;;;;;;;;27.10;40.70;;;;;;1597769;73;1123;-67
2022/06/18 07:40:44;;;;;;;;;;;27.10;40.70;;;;;;1592572;73;767;-67
2022/06/18 07:42:46;;;;;;;;;;;27.10;40.60;;;;;;1594668;73;722;-67
2022/06/18 07:44:48;;;;;;;;;;;27.00;40.60;;;;;;1595307;73;634;-67
2022/06/18 07:46:57;;;;;;;;;;;26.90;40.00;;;;;;1595244;73;1945;-66
2022/06/18 07:48:54;;;;;;;;;;;27.00;40.70;;;;;;1592303;73;1587;-67
2022/06/18 07:50:56;;;;;;;;;;;27.10;40.50;;;;;;1594618;73;732;-67
2022/06/18 07:52:58;;;;;;;;;;;27.00;40.50;;;;;;1597624;73;723;-66
2022/06/18 07:55:00;;;;;;;;;;;27.00;40.10;;;;;;1605952;73;712;-67
2022/06/18 07:57:02;;;;;;;;;;;27.00;40.10;;;;;;1601027;73;1163;-67
2022/06/18 07:59:04;;;;;;;;;;;27.00;40.20;;;;;;1592585;73;785;-66
2022/06/18 08:01:05;;;;;;;;;;;27.00;40.20;;;;;;1589160;73;689;-67
2022/06/18 08:03:08;;;;;;;;;;;27.10;40.00;;;;;;1591290;73;702;-66
2022/06/18 08:05:11;;;;;;;;;;;27.10;39.90;;;;;;1597467;73;750;-67
2022/06/18 08:07:13;;;;;;;;;;;27.10;39.70;;;;;;1599440;73;1894;-66
2022/06/18 08:09:15;;;;;;;;;;;27.20;39.60;;;;;;1599956;73;710;-66
2022/06/18 08:11:17;;;;;;;;;;;27.30;39.40;;;;;;1604757;73;634;-66
2022/06/18 08:13:20;;;;;;;;;;;27.30;39.20;;;;;;1601529;73;716;-66
2022/06/18 08:15:22;;;;;;;;;;;27.20;39.20;;;;;;1595380;73;779;-66
2022/06/18 08:17:23;;;;;;;;;;;27.30;39.10;;;;;;1600239;73;1627;-66
2022/06/18 08:19:25;;;;;;;;;;;27.40;39.10;;;;;;1597868;73;664;-67
2022/06/18 08:21:31;;;;;;;;;;;27.40;39.10;;;;;;1600826;73;689;-67
2022/06/18 08:23:33;;;;;;;;;;;27.30;39.30;;;;;;1607940;73;692;-66
2022/06/18 08:25:36;;;;;;;;;;;27.20;39.60;;;;;;1601047;73;739;-67
2022/06/18 08:27:38;;;;;;;;;;;27.20;39.90;;;;;;1599344;73;1945;-66
2022/06/18 08:29:40;;;;;;;;;;;27.10;39.90;;;;;;1597483;73;740;-66
2022/06/18 08:31:42;;;;;;;;;;;27.20;40.00;;;;;;1599330;73;719;-67
2022/06/18 08:33:43;;;;;;;;;;;27.10;40.00;;;;;;1600462;73;696;-66
2022/06/18 08:35:46;;;;;;;;;;;27.10;40.20;;;;;;1592352;73;742;-66
2022/06/18 08:37:49;;;;;;;;;;;27.20;40.10;;;;;;1598418;73;1157;-66
2022/06/18 08:39:51;;;;;;;;;;;27.10;40.20;;;;;;1599913;73;662;-66
2022/06/18 08:41:57;;;;;;;;;;;27.20;40.20;;;;;;1595439;73;776;-66
2022/06/18 08:44:01;;;;;;;;;;;27.10;40.00;;;;;;1607310;73;814;-67
2022/06/18 08:46:16;;;;;;;;;;;27.10;40.30;;;;;;1592085;73;1903;-66
2022/06/18 08:48:23;;;;;;;;;;;27.10;40.50;;;;;;1593719;73;1149;-67
2022/06/18 08:50:32;;;;;;;;;;;27.10;40.60;;;;;;1595034;73;1951;-66
2022/06/18 08:52:48;;;;;;;;;;;27.10;40.70;;;;;;1598448;73;719;-66
2022/06/18 08:54:51;;;;;;;;;;;27.10;40.80;;;;;;1603433;73;1962;-66
2022/06/18 08:56:55;;;;;;;;;;;27.10;40.70;;;;;;1595159;73;1900;-67
2022/06/18 08:59:10;;;;;;;;;;;27.20;40.60;;;;;;1585145;73;823;-66
2022/06/18 09:01:23;;;;;;;;;;;27.10;40.60;;;;;;1601445;73;1021;-66
2022/06/18 09:03:32;;;;;;;;;;;27.20;40.50;;;;;;1591991;73;656;-67
2022/06/18 09:05:36;;;;;;;;;;;27.20;40.50;;;;;;1596556;73;1911;-66
2022/06/18 09:07:54;;;;;;;;;;;27.20;40.50;;;;;;1596686;73;1945;-67
2022/06/18 09:10:10;;;;;;;;;;;27.20;40.40;;;;;;1595316;73;1980;-67
2022/06/18 09:12:14;;;;;;;;;;;27.10;40.00;;;;;;1591611;73;739;-67
2022/06/18 09:14:26;;;;;;;;;;;27.10;39.50;;;;;;1596822;73;1582;-66
2022/06/18 09:16:30;;;;;;;;;;;27.20;39.70;;;;;;1596881;73;806;-67
2022/06/18 09:18:36;;;;;;;;;;;27.20;39.90;;;;;;1593780;73;1131;-67
2022/06/18 09:20:40;;;;;;;;;;;27.20;39.50;;;;;;1601063;73;726;-67
2022/06/18 09:22:46;;;;;;;;;;;27.10;39.20;;;;;;1598166;73;674;-67
2022/06/18 09:24:49;;;;;;;;;;;27.30;39.60;;;;;;1597002;73;726;-66
2022/06/18 09:26:52;;;;;;;;;;;27.10;39.00;;;;;;1598808;73;1925;-67
2022/06/18 09:28:55;;;;;;;;;;;27.20;38.90;;;;;;1596836;73;1157;-67
2022/06/18 09:31:17;;;;;;;;;;;27.10;39.40;;;;;;1600038;73;699;-67
2022/06/18 09:33:29;;;;;;;;;;;27.20;38.50;;;;;;1591740;73;749;-67
2022/06/18 09:35:33;;;;;;;;;;;27.20;39.20;;;;;;1596968;73;1995;-66
2022/06/18 09:37:36;;;;;;;;;;;27.20;39.00;;;;;;1581870;73;1147;-67
2022/06/18 09:39:39;;;;;;;;;;;27.30;39.00;;;;;;1606760;73;735;-67
2022/06/18 09:41:46;;;;;;;;;;;27.40;38.70;;;;;;1602605;73;783;-66
2022/06/18 09:43:58;;;;;;;;;;;27.50;38.40;;;;;;1586966;73;776;-66
2022/06/18 09:46:01;;;;;;;;;;;27.40;38.00;;;;;;1591064;73;703;-67
2022/06/18 09:48:04;;;;;;;;;;;27.50;38.10;;;;;;1598684;73;1924;-67
2022/06/18 09:50:22;;;;;;;;;;;27.40;38.10;;;;;;1601721;73;752;-67
2022/06/18 09:52:34;;;;;;;;;;;27.40;38.00;;;;;;1587747;73;753;-66
2022/06/18 09:54:41;;;;;;;;;;;27.40;38.10;;;;;;1587924;73;794;-66
2022/06/18 09:56:44;;;;;;;;;;;27.40;37.60;;;;;;1597324;73;755;-65
2022/06/18 09:58:48;;;;;;;;;;;27.20;38.00;;;;;;1593713;73;1166;-65
2022/06/18 10:00:50;;;;;;;;;;;27.40;38.30;;;;;;1605901;73;1121;-66
2022/06/18 10:03:00;;;;;;;;;;;27.50;38.10;;;;;;1610861;73;681;-67
2022/06/18 10:07:22;;;;;;;;;;;27.60;37.70;;;;;;1592509;73;1917;-66
2022/06/18 10:09:26;;;;;;;;;;;27.70;37.70;;;;;;1606445;73;724;-66
2022/06/18 10:11:29;;;;;;;;;;;27.60;37.80;;;;;;1582403;73;1555;-67
2022/06/18 10:13:31;;;;;;;;;;;27.60;37.80;;;;;;1592652;73;732;-66
2022/06/18 10:15:32;;;;;;;;;;;27.60;37.80;;;;;;1600650;73;740;-66
2022/06/18 10:17:48;;;;;;;;;;;27.50;37.80;;;;;;1515480;76;1205;-66
2022/06/18 10:19:58;;;;;;;;;;;27.50;37.90;;;;;;1542942;75;1981;-66
2022/06/18 10:22:01;;;;;;;;;;;27.50;37.90;;;;;;1528408;76;1557;-66
2022/06/18 10:24:09;;;;;;;;;;;27.50;38.00;;;;;;1535502;76;1843;-66
2022/06/18 10:26:12;;;;;;;;;;;27.50;38.00;;;;;;1534859;76;1877;-66
2022/06/18 10:28:28;;;;;;;;;;;27.50;38.10;;;;;;1534321;76;1929;-67
2022/06/18 10:30:31;;;;;;;;;;;27.50;38.10;;;;;;1542713;75;1902;-65
2022/06/18 10:32:38;;;;;;;;;;;27.50;38.10;;;;;;1530143;76;1756;-66
2022/06/18 10:34:44;;;;;;;;;;;27.50;38.20;;;;;;1557296;74;1642;-66
2022/06/18 10:36:48;;;;;;;;;;;27.50;38.30;;;;;;1538689;76;1734;-65
2022/06/18 10:38:51;;;;;;;;;;;27.40;38.30;;;;;;1556544;75;1132;-66
2022/06/18 10:40:55;;;;;;;;;;;27.40;38.40;;;;;;1544438;75;1793;-65
2022/06/18 10:43:01;;;;;;;;;;;27.40;38.40;;;;;;1549856;75;679;-67
2022/06/18 10:45:05;;;;;;;;;;;27.40;38.50;;;;;;1544143;75;632;-66
2022/06/18 10:47:08;;;;;;;;;;;27.40;38.50;;;;;;1552888;75;1930;-66
2022/06/18 10:49:10;;;;;;;;;;;27.40;38.60;;;;;;1549784;75;752;-66
2022/06/18 10:51:15;;;;;;;;;;;27.40;38.60;;;;;;1554557;75;818;-66
2022/06/18 10:53:18;;;;;;;;;;;27.30;38.60;;;;;;1552187;75;705;-66
2022/06/18 10:55:21;;;;;;;;;;;27.30;38.70;;;;;;1538812;75;669;-66
2022/06/18 10:57:23;;;;;;;;;;;27.40;38.70;;;;;;1539332;76;1183;-66
2022/06/18 10:59:36;;;;;;;;;;;27.30;38.80;;;;;;1555164;75;892;-65
2022/06/18 11:01:40;;;;;;;;;;;27.40;38.80;;;;;;1555437;75;1761;-66
2022/06/18 11:03:43;;;;;;;;;;;27.30;38.80;;;;;;1563863;75;1012;-67
2022/06/18 11:05:45;;;;;;;;;;;27.30;38.90;;;;;;1540187;75;1638;-66
2022/06/18 11:07:49;;;;;;;;;;;27.30;38.90;;;;;;1562197;75;1962;-66
2022/06/18 11:09:55;;;;;;;;;;;27.40;38.90;;;;;;1565971;75;674;-66
2022/06/18 11:11:58;;;;;;;;;;;27.30;38.90;;;;;;1557940;75;794;-66
2022/06/18 11:14:11;;;;;;;;;;;27.30;39.00;;;;;;1557525;75;771;-66
2022/06/18 11:16:17;;;;;;;;;;;27.20;39.00;;;;;;1514673;76;1167;-67
2022/06/18 11:18:19;;;;;;;;;;;27.20;39.10;;;;;;1558003;75;1157;-66
2022/06/18 11:20:25;;;;;;;;;;;27.20;39.10;;;;;;1567222;75;697;-67
2022/06/18 11:22:30;;;;;;;;;;;27.20;39.20;;;;;;1563235;75;752;-67
2022/06/18 11:24:33;;;;;;;;;;;27.20;39.20;;;;;;1573302;75;717;-66
2022/06/18 11:26:35;;;;;;;;;;;27.10;39.20;;;;;;1545840;75;1129;-67
2022/06/18 11:28:42;;;;;;;;;;;27.10;39.20;;;;;;1565064;75;1958;-66
2022/06/18 11:30:42;;;;;;;;;;;27.20;39.20;;;;;;1565095;75;1525;-68
2022/06/18 11:32:46;;;;;;;;;;;27.20;39.30;;;;;;1540978;75;696;-67
2022/06/18 11:34:52;;;;;;;;;;;27.10;39.30;;;;;;1551596;75;712;-67
2022/06/18 11:36:56;;;;;;;;;;;27.10;39.40;;;;;;1551980;75;697;-68
2022/06/18 11:38:58;;;;;;;;;;;27.20;39.40;;;;;;1560736;75;1989;-66
2022/06/18 11:41:01;;;;;;;;;;;27.10;39.40;;;;;;1553539;75;669;-66
2022/06/18 11:43:05;;;;;;;;;;;27.10;39.50;;;;;;1529442;75;1216;-66
2022/06/18 11:45:08;;;;;;;;;;;27.10;39.50;;;;;;1555056;75;929;-67
2022/06/18 11:47:15;;;;;;;;;;;27.10;39.60;;;;;;1569502;75;1947;-66
2022/06/18 11:49:24;;;;;;;;;;;27.20;39.60;;;;;;1552548;75;590;-66
2022/06/18 11:51:34;;;;;;;;;;;27.20;39.60;;;;;;1559089;75;702;-66
2022/06/18 11:53:37;;;;;;;;;;;27.10;39.70;;;;;;1549010;75;709;-67
2022/06/18 11:55:40;;;;;;;;;;;27.10;39.70;;;;;;1564139;75;700;-66
2022/06/18 11:57:44;;;;;;;;;;;27.10;39.70;;;;;;1560424;75;1164;-66
2022/06/18 11:59:54;;;;;;;;;;;27.00;39.70;;;;;;1568470;75;1036;-66
2022/06/18 12:01:57;;;;;;;;;;;27.10;39.80;;;;;;1556960;75;786;-66
2022/06/18 12:04:04;;;;;;;;;;;27.00;39.70;;;;;;1563513;75;1828;-66
2022/06/18 12:06:07;;;;;;;;;;;27.10;39.80;;;;;;1562444;75;1601;-66
2022/06/18 12:08:09;;;;;;;;;;;27.00;39.80;;;;;;1565768;75;1936;-67
2022/06/18 12:10:12;;;;;;;;;;;27.00;39.90;;;;;;1563335;74;655;-67
2022/06/18 12:12:27;;;;;;;;;;;27.10;40.00;;;;;;1551059;75;674;-66
2022/06/18 12:14:31;;;;;;;;;;;27.10;40.00;;;;;;1506876;75;1092;-65
2022/06/18 12:16:40;;;;;;;;;;;27.10;39.90;;;;;;1553149;75;1947;-66
2022/06/18 12:18:47;;;;;;;;;;;27.00;39.90;;;;;;1562553;74;1113;-66
2022/06/18 12:20:51;;;;;;;;;;;27.10;40.00;;;;;;1546854;75;1539;-66
2022/06/18 12:22:54;;;;;;;;;;;27.10;39.90;;;;;;1555485;75;766;-67
2022/06/18 12:25:06;;;;;;;;;;;27.10;39.90;;;;;;1528653;76;1836;-67
2022/06/18 12:27:21;;;;;;;;;;;27.10;39.90;;;;;;1542775;75;1656;-67
2022/06/18 12:29:27;;;;;;;;;;;27.10;40.00;;;;;;1529379;76;1935;-66